createdAt,value
2023-02-18T00:01:41.278Z,19.60
2023-02-18T00:04:07.487Z,20.50
2023-02-18T00:06:33.623Z,18.77
2023-02-18T00:09:01.986Z,19.35
2023-02-18T00:11:27.101Z,18.80
2023-02-18T00:13:52.697Z,18.40
2023-02-18T00:16:17.742Z,19.00
2023-02-18T00:18:42.182Z,17.60
2023-02-18T00:21:10.497Z,18.15
2023-02-18T00:23:35.596Z,17.45
2023-02-18T00:26:04.377Z,17.00
2023-02-18T00:28:29.563Z,16.13
2023-02-18T00:30:53.962Z,17.20
2023-02-18T00:33:18.570Z,16.90
2023-02-18T00:35:42.903Z,16.92
2023-02-18T00:38:10.663Z,16.75
2023-02-18T00:40:38.872Z,16.42
2023-02-18T00:43:03.300Z,16.73
2023-02-18T00:45:29.567Z,16.25
2023-02-18T00:47:54.214Z,16.25
2023-02-18T00:50:18.758Z,17.05
2023-02-18T00:52:43.163Z,17.10
2023-02-18T00:55:09.357Z,17.35
2023-02-18T00:57:33.858Z,18.00
2023-02-18T00:59:58.226Z,16.20
2023-02-18T01:02:22.858Z,16.52
2023-02-18T01:04:47.208Z,16.98
2023-02-18T01:07:12.065Z,15.60
2023-02-18T01:09:36.401Z,16.90
2023-02-18T01:12:02.225Z,16.70
2023-02-18T01:14:26.529Z,16.20
2023-02-18T01:16:52.443Z,15.73
2023-02-18T01:19:16.833Z,15.93
2023-02-18T01:21:41.264Z,17.73
2023-02-18T01:24:06.595Z,16.80
2023-02-18T01:26:32.926Z,16.70
2023-02-18T01:28:59.180Z,16.83
2023-02-18T01:31:23.648Z,15.63
2023-02-18T01:33:48.831Z,16.65
2023-02-18T01:36:13.666Z,15.73
2023-02-18T01:38:38.652Z,16.20
2023-02-18T01:41:03.121Z,15.70
2023-02-18T01:43:28.069Z,16.98
2023-02-18T01:46:13.643Z,15.13
2023-02-18T01:48:42.250Z,15.85
2023-02-18T01:51:11.675Z,14.85
2023-02-18T01:53:40.645Z,16.00
2023-02-18T01:56:08.434Z,16.02
2023-02-18T01:58:33.827Z,15.18
2023-02-18T02:00:59.166Z,16.38
2023-02-18T02:03:25.599Z,15.10
2023-02-18T02:05:50.008Z,16.33
2023-02-18T02:08:14.676Z,17.50
2023-02-18T02:10:53.082Z,16.55
2023-02-18T02:13:25.171Z,18.20
2023-02-18T02:16:16.648Z,17.73
2023-02-18T02:18:57.367Z,19.10
2023-02-18T02:22:06.168Z,20.08
2023-02-18T02:24:55.087Z,18.40
2023-02-18T02:27:25.532Z,18.77
2023-02-18T02:30:32.544Z,19.42
2023-02-18T02:33:24.779Z,20.75
2023-02-18T02:35:57.511Z,21.25
2023-02-18T02:38:30.703Z,20.27
2023-02-18T02:41:03.961Z,21.42
2023-02-18T02:43:40.018Z,20.90
2023-02-18T02:46:08.342Z,21.25
2023-02-18T02:48:40.332Z,20.25
2023-02-18T02:51:11.960Z,21.55
2023-02-18T02:53:38.341Z,20.88
2023-02-18T02:56:02.702Z,21.35
2023-02-18T02:58:28.319Z,22.40
2023-02-18T03:01:07.766Z,22.05
2023-02-18T03:03:48.698Z,21.75
2023-02-18T03:06:33.352Z,22.63
2023-02-18T03:09:08.435Z,22.45
2023-02-18T03:11:38.822Z,23.67
2023-02-18T03:14:12.123Z,24.85
2023-02-18T03:16:46.081Z,23.65
2023-02-18T03:19:19.366Z,23.20
2023-02-18T03:21:49.114Z,24.65
2023-02-18T03:24:17.941Z,24.58
2023-02-18T03:26:46.788Z,26.17
2023-02-18T03:29:14.817Z,26.30
2023-02-18T03:31:43.964Z,26.58
2023-02-18T03:34:13.656Z,27.65
2023-02-18T03:36:41.613Z,29.15
2023-02-18T03:39:10.672Z,27.63
2023-02-18T03:41:35.769Z,29.47
2023-02-18T03:44:02.736Z,29.63
2023-02-18T03:46:27.596Z,30.83
2023-02-18T03:48:52.094Z,31.80
2023-02-18T03:51:19.674Z,31.15
2023-02-18T03:53:44.020Z,31.65
2023-02-18T03:56:11.604Z,32.28
2023-02-18T03:58:35.927Z,32.17
2023-02-18T04:01:00.395Z,32.22
2023-02-18T04:03:24.751Z,33.47
2023-02-18T04:05:49.276Z,32.42
2023-02-18T04:08:13.676Z,32.90
2023-02-18T04:10:38.041Z,35.67
2023-02-18T04:13:03.791Z,32.08
2023-02-18T04:15:30.509Z,33.08
2023-02-18T04:17:54.825Z,34.50
2023-02-18T04:20:19.511Z,33.17
2023-02-18T04:22:44.394Z,31.67
2023-02-18T04:25:09.601Z,31.80
2023-02-18T04:27:33.847Z,30.60
2023-02-18T04:29:59.776Z,32.50
2023-02-18T04:32:24.073Z,31.77
2023-02-18T04:34:48.404Z,32.55
2023-02-18T04:37:12.812Z,31.60
2023-02-18T04:39:37.161Z,30.52
2023-02-18T04:42:01.537Z,31.02
2023-02-18T04:44:25.860Z,31.70
2023-02-18T04:46:51.861Z,31.25
2023-02-18T04:49:16.202Z,31.55
2023-02-18T04:51:40.641Z,31.80
2023-02-18T04:54:05.291Z,30.55
2023-02-18T04:56:30.011Z,31.98
2023-02-18T04:58:54.366Z,32.90
2023-02-18T05:01:18.880Z,31.65
2023-02-18T05:03:46.076Z,30.83
2023-02-18T05:06:10.784Z,29.50
2023-02-18T05:08:35.341Z,30.25
2023-02-18T05:10:59.820Z,31.13
2023-02-18T05:13:24.192Z,31.20
2023-02-18T05:15:48.745Z,30.13
2023-02-18T05:18:13.367Z,29.60
2023-02-18T05:20:39.093Z,30.00
2023-02-18T05:23:03.505Z,29.35
2023-02-18T05:25:27.972Z,29.45
2023-02-18T05:27:52.375Z,28.95
2023-02-18T05:30:16.998Z,30.38
2023-02-18T05:32:41.419Z,29.02
2023-02-18T05:35:06.731Z,28.95
2023-02-18T05:37:32.644Z,29.35
2023-02-18T05:39:57.175Z,29.77
2023-02-18T05:42:23.444Z,29.23
2023-02-18T05:44:47.979Z,27.13
2023-02-18T05:47:13.696Z,27.80
2023-02-18T05:49:38.492Z,28.75
2023-02-18T05:52:03.251Z,28.00
2023-02-18T05:54:29.768Z,27.25
2023-02-18T05:56:54.749Z,27.48
2023-02-18T05:59:19.643Z,28.10
2023-02-18T06:01:44.131Z,26.95
2023-02-18T06:04:08.561Z,26.92
2023-02-18T06:06:33.888Z,26.95
2023-02-18T06:08:59.258Z,29.35
2023-02-18T06:11:25.461Z,27.92
2023-02-18T06:13:49.759Z,27.77
2023-02-18T06:16:14.259Z,28.17
2023-02-18T06:18:38.693Z,28.35
2023-02-18T06:21:03.199Z,26.58
2023-02-18T06:23:30.106Z,27.98
2023-02-18T06:25:54.713Z,27.52
2023-02-18T06:28:20.597Z,28.30
2023-02-18T06:30:45.944Z,27.67
2023-02-18T06:33:10.260Z,27.70
2023-02-18T06:35:35.121Z,28.13
2023-02-18T06:37:59.444Z,27.13
2023-02-18T06:40:23.875Z,26.58
2023-02-18T06:42:48.173Z,26.17
2023-02-18T06:45:13.937Z,26.55
2023-02-18T06:47:38.490Z,27.63
2023-02-18T06:50:02.893Z,25.92
2023-02-18T06:52:28.069Z,26.23
2023-02-18T06:54:52.589Z,25.33
2023-02-18T06:57:16.947Z,25.52
2023-02-18T06:59:41.394Z,25.35
2023-02-18T07:02:07.157Z,25.33
2023-02-18T07:04:33.022Z,27.60
2023-02-18T07:06:57.537Z,26.33
2023-02-18T07:09:22.005Z,25.27
2023-02-18T07:11:46.271Z,24.52
2023-02-18T07:14:10.897Z,24.70
2023-02-18T07:16:35.249Z,25.92
2023-02-18T07:19:01.057Z,25.05
2023-02-18T07:21:25.651Z,24.00
2023-02-18T07:23:50.108Z,24.33
2023-02-18T07:26:15.585Z,23.67
2023-02-18T07:28:40.510Z,23.70
2023-02-18T07:31:05.368Z,25.08
2023-02-18T07:33:30.001Z,24.88
2023-02-18T07:36:00.479Z,24.38
2023-02-18T07:38:25.770Z,24.42
2023-02-18T07:40:50.167Z,22.02
2023-02-18T07:43:14.526Z,23.92
2023-02-18T07:45:39.958Z,23.83
2023-02-18T07:48:04.507Z,22.83
2023-02-18T07:50:29.052Z,22.30
2023-02-18T07:52:54.874Z,19.90
2023-02-18T07:55:19.407Z,21.13
2023-02-18T08:02:38.180Z,18.95
2023-02-18T08:05:02.500Z,19.50
2023-02-18T08:07:27.199Z,19.10
2023-02-18T08:09:51.727Z,18.30
2023-02-18T08:12:16.082Z,19.80
2023-02-18T08:14:42.488Z,20.15
2023-02-18T08:17:08.218Z,19.88
2023-02-18T08:19:32.885Z,19.33
2023-02-18T08:21:57.232Z,20.92
2023-02-18T08:24:22.564Z,20.33
2023-02-18T08:26:59.855Z,19.65
2023-02-18T08:29:25.427Z,19.48
2023-02-18T08:31:49.889Z,19.98
2023-02-18T08:34:15.738Z,21.00
2023-02-18T08:36:40.005Z,20.67
2023-02-18T08:39:04.749Z,20.13
2023-02-18T08:41:29.047Z,21.00
2023-02-18T08:43:53.475Z,19.95
2023-02-18T08:46:33.401Z,19.42
2023-02-18T08:49:01.064Z,18.48
2023-02-18T08:51:26.955Z,18.42
2023-02-18T08:53:51.446Z,17.85
2023-02-18T08:56:17.239Z,18.27
2023-02-18T08:58:42.064Z,18.08
2023-02-18T09:01:08.903Z,18.10
2023-02-18T09:03:33.492Z,17.65
2023-02-18T09:05:58.702Z,17.15
2023-02-18T09:08:24.540Z,18.27
2023-02-18T09:10:50.312Z,18.15
2023-02-18T09:13:14.662Z,17.50
2023-02-18T09:15:39.115Z,19.52
2023-02-18T09:18:03.487Z,19.55
2023-02-18T09:20:28.842Z,19.35
2023-02-18T09:22:53.290Z,19.30
2023-02-18T09:25:20.721Z,18.50
2023-02-18T09:27:45.043Z,18.73
2023-02-18T09:30:10.553Z,19.83
2023-02-18T09:32:35.574Z,19.23
2023-02-18T09:35:00.157Z,18.85
2023-02-18T09:37:24.401Z,20.38
2023-02-18T09:39:49.660Z,18.33
2023-02-18T09:42:19.769Z,19.52
2023-02-18T09:44:46.801Z,18.70
2023-02-18T09:47:15.070Z,18.83
2023-02-18T09:49:42.529Z,19.00
2023-02-18T09:52:13.375Z,19.13
2023-02-18T09:54:37.838Z,19.17
2023-02-18T09:57:03.073Z,18.63
2023-02-18T09:59:29.867Z,17.73
2023-02-18T10:01:57.188Z,18.52
2023-02-18T10:04:24.301Z,19.25
2023-02-18T10:06:50.110Z,20.85
2023-02-18T10:09:21.963Z,19.05
2023-02-18T10:11:49.760Z,18.50
2023-02-18T10:14:16.212Z,18.38
2023-02-18T10:16:42.697Z,19.05
2023-02-18T10:19:17.491Z,18.40
2023-02-18T10:21:42.194Z,18.35
2023-02-18T10:24:14.304Z,17.73
2023-02-18T10:26:40.580Z,17.27
2023-02-18T10:29:05.310Z,17.58
2023-02-18T10:31:35.394Z,18.33
2023-02-18T10:34:08.397Z,16.58
2023-02-18T10:36:39.250Z,16.15
2023-02-18T10:39:45.647Z,16.80
2023-02-18T10:42:22.259Z,17.45
2023-02-18T10:44:57.711Z,16.38
2023-02-18T10:47:34.522Z,16.90
2023-02-18T10:50:03.523Z,15.65
2023-02-18T10:52:31.653Z,16.52
2023-02-18T10:55:04.513Z,17.35
2023-02-18T10:57:29.311Z,17.15
2023-02-18T11:00:00.179Z,15.65
2023-02-18T11:02:30.985Z,15.40
2023-02-18T11:05:02.026Z,16.80
2023-02-18T11:07:34.256Z,15.82
2023-02-18T11:10:18.170Z,16.20
2023-02-18T11:12:47.618Z,15.50
2023-02-18T11:15:20.874Z,16.45
2023-02-18T11:17:47.066Z,15.80
2023-02-18T11:20:31.367Z,15.77
2023-02-18T11:23:00.067Z,15.55
2023-02-18T11:25:26.773Z,16.08
2023-02-18T11:27:53.785Z,19.13
2023-02-18T11:30:24.072Z,15.23
2023-02-18T11:32:50.899Z,15.52
2023-02-18T11:35:33.315Z,15.85
2023-02-18T11:38:00.020Z,15.25
2023-02-18T11:40:27.662Z,15.68
2023-02-18T11:42:52.149Z,16.60
2023-02-18T11:45:29.546Z,16.35
2023-02-18T11:48:01.373Z,15.07
2023-02-18T11:50:27.545Z,16.58
2023-02-18T11:52:53.997Z,16.95
2023-02-18T11:55:21.055Z,15.80
2023-02-18T11:57:49.315Z,14.75
2023-02-18T12:00:20.941Z,14.73
2023-02-18T12:02:45.564Z,15.38
2023-02-18T12:05:15.946Z,15.43
2023-02-18T12:07:45.966Z,14.32
2023-02-18T12:10:15.567Z,15.13
2023-02-18T12:12:47.090Z,14.40
2023-02-18T12:15:17.630Z,14.25
2023-02-18T12:20:31.026Z,13.23
2023-02-18T12:23:04.289Z,14.52
2023-02-18T12:25:40.149Z,13.18
2023-02-18T12:28:26.300Z,13.02
2023-02-18T12:31:12.418Z,13.75
2023-02-18T12:33:45.739Z,13.27
2023-02-18T12:36:20.867Z,13.18
2023-02-18T12:39:17.987Z,14.02
2023-02-18T12:42:01.453Z,13.88
2023-02-18T12:44:45.401Z,13.45
2023-02-18T12:47:31.695Z,13.27
2023-02-18T12:50:26.371Z,13.55
2023-02-18T12:53:03.769Z,12.98
2023-02-18T12:55:40.334Z,12.02
2023-02-18T12:58:17.842Z,12.23
2023-02-18T13:01:12.208Z,12.25
2023-02-18T13:04:04.785Z,11.60
2023-02-18T13:06:43.775Z,12.70
2023-02-18T13:09:18.862Z,12.75
2023-02-18T13:11:51.734Z,11.52
2023-02-18T13:14:22.247Z,11.80
2023-02-18T13:16:52.864Z,11.93
2023-02-18T13:19:23.960Z,10.85
2023-02-18T13:21:52.405Z,12.32
2023-02-18T13:24:24.306Z,11.68
2023-02-18T13:26:52.422Z,11.52
2023-02-18T13:29:28.158Z,11.88
2023-02-18T13:32:03.408Z,11.18
2023-02-18T13:34:33.783Z,12.02
2023-02-18T13:37:08.051Z,12.15
2023-02-18T13:39:33.764Z,11.23
2023-02-18T13:42:25.810Z,10.38
2023-02-18T13:45:31.454Z,9.98
2023-02-18T13:47:56.913Z,10.82
2023-02-18T13:50:32.226Z,9.40
2023-02-18T13:53:15.005Z,10.27
2023-02-18T13:55:43.473Z,12.07
2023-02-18T13:58:17.607Z,9.77
2023-02-18T14:00:50.984Z,9.40
2023-02-18T14:03:33.450Z,9.40
2023-02-18T14:05:58.420Z,8.90
2023-02-18T14:08:34.689Z,8.93
2023-02-18T14:11:34.000Z,8.75
2023-02-18T14:14:17.873Z,7.40
2023-02-18T14:17:30.960Z,8.75
2023-02-18T14:19:56.336Z,7.72
2023-02-18T14:22:29.982Z,7.93
2023-02-18T14:25:02.274Z,8.07
2023-02-18T14:27:27.674Z,7.80
2023-02-18T14:29:54.409Z,8.07
2023-02-18T14:32:22.170Z,7.63
2023-02-18T14:35:14.441Z,8.20
2023-02-18T14:38:06.622Z,8.18
2023-02-18T14:40:59.084Z,9.25
2023-02-18T14:43:41.213Z,7.95
2023-02-18T14:46:18.111Z,7.53
2023-02-18T14:49:12.681Z,8.05
2023-02-18T14:51:37.742Z,8.27
2023-02-18T14:54:06.899Z,8.25
2023-02-18T14:56:31.488Z,7.60
2023-02-18T14:59:01.083Z,7.32
2023-02-18T15:01:30.545Z,8.15
2023-02-18T15:03:57.586Z,7.97
2023-02-18T15:06:27.452Z,8.40
2023-02-18T15:08:53.041Z,7.88
2023-02-18T15:11:18.450Z,8.82
2023-02-18T15:13:45.361Z,8.20
2023-02-18T15:16:15.156Z,7.80
2023-02-18T15:18:42.439Z,8.07
2023-02-18T15:21:10.395Z,7.38
2023-02-18T15:23:38.308Z,7.68
2023-02-18T15:26:02.888Z,8.32
2023-02-18T15:28:30.099Z,8.75
2023-02-18T15:30:54.836Z,8.48
2023-02-18T15:33:24.034Z,8.85
2023-02-18T15:35:49.004Z,9.37
2023-02-18T15:38:18.654Z,9.07
2023-02-18T15:40:43.496Z,9.70
2023-02-18T15:43:08.946Z,10.35
2023-02-18T15:45:36.375Z,9.88
2023-02-18T15:48:02.000Z,9.05
2023-02-18T15:50:28.614Z,9.32
2023-02-18T15:52:54.727Z,9.35
2023-02-18T15:55:28.341Z,9.68
2023-02-18T15:57:54.530Z,9.63
2023-02-18T16:00:22.278Z,9.73
2023-02-18T16:02:55.893Z,10.20
2023-02-18T16:05:32.235Z,10.27
2023-02-18T16:08:01.941Z,10.68
2023-02-18T16:10:45.045Z,9.80
2023-02-18T16:13:09.597Z,9.77
2023-02-18T16:15:40.536Z,10.50
2023-02-18T16:18:07.148Z,9.65
2023-02-18T16:20:36.067Z,11.07
2023-02-18T16:23:11.711Z,9.75
2023-02-18T16:25:44.062Z,9.55
2023-02-18T16:28:16.444Z,10.45
2023-02-18T16:30:42.145Z,9.48
2023-02-18T16:33:06.561Z,10.65
2023-02-18T16:35:43.943Z,9.98
2023-02-18T16:38:18.758Z,9.70
2023-02-18T16:40:44.724Z,10.32
2023-02-18T16:43:15.739Z,9.60
2023-02-18T16:45:43.931Z,10.32
2023-02-18T16:48:12.805Z,10.77
2023-02-18T16:50:37.285Z,11.80
2023-02-18T16:53:02.654Z,11.35
2023-02-18T16:55:29.744Z,11.82
2023-02-18T16:57:56.182Z,12.00
2023-02-18T17:00:21.288Z,12.57
2023-02-18T17:02:47.159Z,12.68
2023-02-18T17:05:26.420Z,12.48
2023-02-18T17:07:51.731Z,12.52
2023-02-18T17:10:16.717Z,12.38
2023-02-18T17:12:43.678Z,12.98
2023-02-18T17:15:15.641Z,12.48
2023-02-18T17:17:40.034Z,12.68
2023-02-18T17:20:04.793Z,12.63
2023-02-18T17:22:29.501Z,6.72
2023-02-18T17:24:53.896Z,13.00
2023-02-18T17:27:21.161Z,12.43
2023-02-18T17:29:45.660Z,12.00
2023-02-18T17:32:14.481Z,12.30
2023-02-18T17:34:41.103Z,13.82
2023-02-18T17:37:05.669Z,13.52
2023-02-18T17:39:31.418Z,12.30
2023-02-18T17:41:55.947Z,12.18
2023-02-18T17:44:22.085Z,12.50
2023-02-18T17:46:46.812Z,12.32
2023-02-18T17:49:12.615Z,13.05
2023-02-18T17:51:38.496Z,12.13
2023-02-18T17:54:02.968Z,12.18
2023-02-18T17:56:27.549Z,12.30
2023-02-18T17:58:51.977Z,12.40
2023-02-18T18:01:17.242Z,11.90
2023-02-18T18:03:41.743Z,12.50
2023-02-18T18:06:15.525Z,12.15
2023-02-18T18:08:40.113Z,11.82
2023-02-18T18:11:06.002Z,11.60
2023-02-18T18:13:32.424Z,12.52
2023-02-18T18:15:58.142Z,13.13
2023-02-18T18:18:22.709Z,12.63
2023-02-18T18:20:49.790Z,13.25
2023-02-18T18:23:18.176Z,12.45
2023-02-18T18:25:45.483Z,13.80
2023-02-18T18:28:10.540Z,12.48
2023-02-18T18:30:36.887Z,12.10
2023-02-18T18:33:01.377Z,12.38
2023-02-18T18:35:28.699Z,12.60
2023-02-18T18:37:53.992Z,13.02
2023-02-18T18:40:21.312Z,13.05
2023-02-18T18:42:45.664Z,12.63
2023-02-18T18:45:19.665Z,12.23
2023-02-18T18:47:44.274Z,13.20
2023-02-18T18:50:09.556Z,10.70
2023-02-18T18:52:34.218Z,11.93
2023-02-18T18:54:58.560Z,11.40
2023-02-18T18:57:24.324Z,11.13
2023-02-18T18:59:48.641Z,11.75
2023-02-18T19:02:16.922Z,12.05
2023-02-18T19:04:41.345Z,11.43
2023-02-18T19:07:05.788Z,10.98
2023-02-18T19:09:30.223Z,12.98
2023-02-18T19:11:54.683Z,11.85
2023-02-18T19:14:22.086Z,11.25
2023-02-18T19:16:46.823Z,12.13
2023-02-18T19:19:12.504Z,11.57
2023-02-18T19:21:37.345Z,12.73
2023-02-18T19:24:01.756Z,12.60
2023-02-18T19:26:26.283Z,12.07
2023-02-18T19:28:50.630Z,12.32
2023-02-18T19:31:16.724Z,12.20
2023-02-18T19:33:41.269Z,11.35
2023-02-18T19:36:08.851Z,11.40
2023-02-18T19:38:33.821Z,11.52
2023-02-18T19:40:58.373Z,12.10
2023-02-18T19:43:22.765Z,11.13
2023-02-18T19:45:48.892Z,11.60
2023-02-18T19:48:15.918Z,11.73
2023-02-18T19:50:42.261Z,10.48
2023-02-18T19:53:06.684Z,10.13
2023-02-18T19:55:31.200Z,11.32
2023-02-18T19:57:55.728Z,11.25
2023-02-18T20:00:22.342Z,11.23
2023-02-18T20:02:47.341Z,11.52
2023-02-18T20:05:14.453Z,11.32
2023-02-18T20:07:39.026Z,10.13
2023-02-18T20:10:03.871Z,10.45
2023-02-18T20:12:28.501Z,9.90
2023-02-18T20:14:53.105Z,10.13
2023-02-18T20:17:18.283Z,10.07
2023-02-18T20:19:42.687Z,10.18
2023-02-18T20:22:10.321Z,10.35
2023-02-18T20:24:35.183Z,10.45
2023-02-18T20:27:02.570Z,10.98
2023-02-18T20:29:29.039Z,11.07
2023-02-18T20:31:54.440Z,10.70
2023-02-18T20:34:19.334Z,10.10
2023-02-18T20:36:45.437Z,9.55
2023-02-18T20:39:16.187Z,9.52
2023-02-18T20:41:41.274Z,10.15
2023-02-18T20:44:05.905Z,9.30
2023-02-18T20:46:30.752Z,9.52
2023-02-18T20:48:55.661Z,9.85
2023-02-18T20:51:22.271Z,10.55
2023-02-18T20:53:47.963Z,9.80
2023-02-18T20:56:14.061Z,9.48
2023-02-18T20:58:38.627Z,10.35
2023-02-18T21:01:04.827Z,10.25
2023-02-18T21:03:29.776Z,9.90
2023-02-18T21:06:01.072Z,10.20
2023-02-18T21:08:26.363Z,9.65
2023-02-18T21:10:52.752Z,10.45
2023-02-18T21:13:19.107Z,9.52
2023-02-18T21:15:43.562Z,10.10
2023-02-18T21:18:08.034Z,9.88
2023-02-18T21:20:32.683Z,10.57
2023-02-18T21:22:57.286Z,9.60
2023-02-18T21:25:22.092Z,10.35
2023-02-18T21:27:46.615Z,10.40
2023-02-18T21:30:13.504Z,10.10
2023-02-18T21:32:38.033Z,10.02
2023-02-18T21:35:02.424Z,11.68
2023-02-18T21:37:27.056Z,9.98
2023-02-18T21:39:51.426Z,10.90
2023-02-18T21:42:15.839Z,10.18
2023-02-18T21:44:42.588Z,10.57
2023-02-18T21:47:08.823Z,11.13
2023-02-18T21:49:33.286Z,9.30
2023-02-18T21:51:58.181Z,10.98
2023-02-18T21:54:24.657Z,11.27
2023-02-18T21:56:49.511Z,10.75
2023-02-18T21:59:13.939Z,10.57
2023-02-18T22:01:38.430Z,10.93
2023-02-18T22:04:04.439Z,10.68
2023-02-18T22:06:28.835Z,10.43
2023-02-18T22:08:53.264Z,10.20
2023-02-18T22:11:18.864Z,9.88
2023-02-18T22:13:45.412Z,9.82
2023-02-18T22:16:09.794Z,10.40
2023-02-18T22:18:34.914Z,9.85
2023-02-18T22:21:01.012Z,9.85
2023-02-18T22:23:25.633Z,10.75
2023-02-18T22:25:52.212Z,10.23
2023-02-18T22:28:19.500Z,10.88
2023-02-18T22:30:43.967Z,12.23
2023-02-18T22:33:08.464Z,10.50
2023-02-18T22:35:33.714Z,10.95
2023-02-18T22:37:59.849Z,11.32
2023-02-18T22:40:24.498Z,12.18
2023-02-18T22:42:48.853Z,11.80
2023-02-18T22:45:13.318Z,12.15
2023-02-18T22:47:37.661Z,12.68
2023-02-18T22:50:02.059Z,13.55
2023-02-18T22:52:27.564Z,14.00
2023-02-18T22:54:54.999Z,14.32
2023-02-18T22:57:19.646Z,13.95
2023-02-18T22:59:44.024Z,13.68
2023-02-18T23:02:08.407Z,13.45
2023-02-18T23:04:33.059Z,13.07
2023-02-18T23:06:57.479Z,13.20
2023-02-18T23:09:24.356Z,12.30
2023-02-18T23:11:53.032Z,12.50
2023-02-18T23:14:21.508Z,12.65
2023-02-18T23:17:04.383Z,12.60
2023-02-18T23:19:31.794Z,11.48
2023-02-18T23:21:56.366Z,12.10
2023-02-18T23:24:22.806Z,11.80
2023-02-18T23:26:47.794Z,13.25
2023-02-18T23:29:13.817Z,12.27
2023-02-18T23:31:38.724Z,12.88
2023-02-18T23:34:03.335Z,13.32
2023-02-18T23:36:29.778Z,13.23
2023-02-18T23:38:56.085Z,13.65
2023-02-18T23:41:21.235Z,13.88
2023-02-18T23:43:45.922Z,13.90
2023-02-18T23:46:12.006Z,13.90
2023-02-18T23:48:39.529Z,13.55
2023-02-18T23:51:07.329Z,13.75
2023-02-18T23:53:33.689Z,14.10
2023-02-18T23:56:07.502Z,13.73
2023-02-18T23:58:32.044Z,14.15
